createdAt,value
2022-11-18T00:01:10.613Z,100.00
2022-11-18T00:03:38.130Z,100.00
2022-11-18T00:06:05.930Z,100.00
2022-11-18T00:08:32.643Z,100.00
2022-11-18T00:10:59.302Z,100.00
2022-11-18T00:13:44.575Z,100.00
2022-11-18T00:16:12.771Z,100.00
2022-11-18T00:18:39.953Z,100.00
2022-11-18T00:21:10.786Z,100.00
2022-11-18T00:23:38.324Z,100.00
2022-11-18T00:26:14.902Z,100.00
2022-11-18T00:28:42.153Z,100.00
2022-11-18T00:31:13.822Z,100.00
2022-11-18T00:33:40.894Z,100.00
2022-11-18T00:36:10.252Z,100.00
2022-11-18T00:38:37.371Z,100.00
2022-11-18T00:41:12.473Z,100.00
2022-11-18T00:43:39.562Z,100.00
2022-11-18T00:46:08.554Z,100.00
2022-11-18T00:48:39.352Z,100.00
2022-11-18T00:51:17.677Z,100.00
2022-11-18T00:53:44.949Z,100.00
2022-11-18T00:56:11.829Z,100.00
2022-11-18T00:58:38.574Z,100.00
2022-11-18T01:01:05.723Z,100.00
2022-11-18T01:03:32.609Z,100.00
2022-11-18T01:05:59.094Z,100.00
2022-11-18T01:08:26.079Z,100.00
2022-11-18T01:10:52.742Z,100.00
2022-11-18T01:13:22.880Z,100.00
2022-11-18T01:15:51.675Z,100.00
2022-11-18T01:18:20.824Z,100.00
2022-11-18T01:20:48.217Z,100.00
2022-11-18T01:23:14.986Z,100.00
2022-11-18T01:25:43.918Z,100.00
2022-11-18T01:28:11.531Z,100.00
2022-11-18T01:30:39.476Z,100.00
2022-11-18T01:33:06.467Z,100.00
2022-11-18T01:35:38.177Z,100.00
2022-11-18T01:38:05.467Z,100.00
2022-11-18T01:40:33.447Z,100.00
2022-11-18T01:43:00.140Z,100.00
2022-11-18T01:45:38.919Z,100.00
2022-11-18T01:48:16.922Z,100.00
2022-11-18T01:50:49.189Z,100.00
2022-11-18T01:53:21.879Z,100.00
2022-11-18T01:55:51.339Z,100.00
2022-11-18T01:58:26.110Z,100.00
2022-11-18T02:00:53.509Z,100.00
2022-11-18T02:03:21.212Z,100.00
2022-11-18T02:05:50.257Z,100.00
2022-11-18T02:08:18.528Z,100.00
2022-11-18T02:10:45.130Z,100.00
2022-11-18T02:13:12.934Z,100.00
2022-11-18T02:15:47.780Z,100.00
2022-11-18T02:18:50.087Z,100.00
2022-11-18T02:21:28.492Z,100.00
2022-11-18T02:24:00.768Z,100.00
2022-11-18T02:26:50.381Z,100.00
2022-11-18T02:29:30.908Z,100.00
2022-11-18T02:32:06.418Z,100.00
2022-11-18T02:34:36.064Z,100.00
2022-11-18T02:37:32.056Z,100.00
2022-11-18T02:40:01.067Z,100.00
2022-11-18T02:42:31.383Z,100.00
2022-11-18T02:45:03.382Z,100.00
2022-11-18T02:47:32.546Z,100.00
2022-11-18T02:50:04.697Z,100.00
2022-11-18T02:52:33.430Z,100.00
2022-11-18T02:55:01.571Z,100.00
2022-11-18T02:57:31.110Z,100.00
2022-11-18T02:59:57.734Z,100.00
2022-11-18T03:02:24.341Z,100.00
2022-11-18T03:04:56.172Z,100.00
2022-11-18T03:07:31.883Z,100.00
2022-11-18T03:10:00.638Z,100.00
2022-11-18T03:12:41.190Z,100.00
2022-11-18T03:15:41.132Z,100.00
2022-11-18T03:18:20.729Z,100.00
2022-11-18T03:21:10.288Z,100.00
2022-11-18T03:23:44.536Z,100.00
2022-11-18T03:26:33.209Z,100.00
2022-11-18T03:29:28.717Z,100.00
2022-11-18T03:32:09.237Z,100.00
2022-11-18T03:34:48.120Z,100.00
2022-11-18T03:37:18.142Z,100.00
2022-11-18T03:40:02.302Z,100.00
2022-11-18T03:42:38.555Z,100.00
2022-11-18T03:45:34.414Z,100.00
2022-11-18T03:48:09.227Z,100.00
2022-11-18T03:50:47.884Z,100.00
2022-11-18T03:53:17.671Z,100.00
2022-11-18T03:55:49.685Z,100.00
2022-11-18T03:58:21.920Z,100.00
2022-11-18T04:00:52.600Z,100.00
2022-11-18T04:03:19.459Z,100.00
2022-11-18T04:05:50.045Z,100.00
2022-11-18T04:08:23.486Z,100.00
2022-11-18T04:10:58.493Z,100.00
2022-11-18T04:13:29.570Z,100.00
2022-11-18T04:15:56.247Z,100.00
2022-11-18T04:18:23.015Z,100.00
2022-11-18T04:20:49.460Z,100.00
2022-11-18T04:23:15.865Z,100.00
2022-11-18T04:25:42.372Z,100.00
2022-11-18T04:28:08.928Z,100.00
2022-11-18T04:30:35.492Z,100.00
2022-11-18T04:33:06.586Z,100.00
2022-11-18T04:35:33.033Z,100.00
2022-11-18T04:37:59.514Z,100.00
2022-11-18T04:40:26.060Z,100.00
2022-11-18T04:42:52.588Z,100.00
2022-11-18T04:45:19.084Z,100.00
2022-11-18T04:47:45.624Z,100.00
2022-11-18T04:50:12.152Z,100.00
2022-11-18T04:52:38.646Z,100.00
2022-11-18T04:55:05.433Z,100.00
2022-11-18T04:57:31.955Z,100.00
2022-11-18T04:59:58.488Z,100.00
2022-11-18T05:02:25.050Z,100.00
2022-11-18T05:04:51.461Z,100.00
2022-11-18T05:07:18.534Z,100.00
2022-11-18T05:09:45.100Z,100.00
2022-11-18T05:12:31.632Z,100.00
2022-11-18T05:14:58.141Z,100.00
2022-11-18T05:17:25.036Z,100.00
2022-11-18T05:19:51.573Z,100.00
2022-11-18T05:22:19.230Z,100.00
2022-11-18T05:24:45.901Z,100.00
2022-11-18T05:27:13.864Z,100.00
2022-11-18T05:29:40.433Z,100.00
2022-11-18T05:32:06.948Z,100.00
2022-11-18T05:34:33.513Z,100.00
2022-11-18T05:37:00.101Z,100.00
2022-11-18T05:39:26.608Z,100.00
2022-11-18T05:42:12.716Z,100.00
2022-11-18T05:44:39.146Z,100.00
2022-11-18T05:47:09.073Z,100.00
2022-11-18T05:49:35.691Z,100.00
2022-11-18T05:52:03.564Z,100.00
2022-11-18T05:54:32.679Z,100.00
2022-11-18T05:56:59.878Z,100.00
2022-11-18T05:59:26.557Z,100.00
2022-11-18T06:02:18.477Z,100.00
2022-11-18T06:04:55.509Z,100.00
2022-11-18T06:07:27.876Z,100.00
2022-11-18T06:10:02.230Z,100.00
2022-11-18T06:12:37.255Z,100.00
2022-11-18T06:15:13.249Z,100.00
2022-11-18T06:18:23.684Z,100.00
2022-11-18T06:20:52.948Z,100.00
2022-11-18T06:23:21.607Z,100.00
2022-11-18T06:25:48.778Z,100.00
2022-11-18T06:28:17.313Z,100.00
2022-11-18T06:30:43.780Z,100.00
2022-11-18T06:33:10.953Z,100.00
2022-11-18T06:35:37.485Z,100.00
2022-11-18T06:38:04.000Z,100.00
2022-11-18T06:40:34.776Z,100.00
2022-11-18T06:43:27.846Z,100.00
2022-11-18T06:46:17.682Z,100.00
2022-11-18T06:48:44.420Z,100.00
2022-11-18T06:51:11.189Z,100.00
2022-11-18T06:53:38.142Z,100.00
2022-11-18T06:56:09.206Z,100.00
2022-11-18T06:58:36.194Z,100.00
2022-11-18T07:01:17.631Z,100.00
2022-11-18T07:03:46.263Z,100.00
2022-11-18T07:06:15.050Z,100.00
2022-11-18T07:08:42.633Z,100.00
2022-11-18T07:11:15.533Z,100.00
2022-11-18T07:13:43.917Z,100.00
2022-11-18T07:16:13.841Z,100.00
2022-11-18T07:18:43.312Z,100.00
2022-11-18T07:21:17.760Z,100.00
2022-11-18T07:23:44.646Z,100.00
2022-11-18T07:26:11.493Z,100.00
2022-11-18T07:28:38.921Z,100.00
2022-11-18T07:31:10.894Z,100.00
2022-11-18T07:33:38.510Z,100.00
2022-11-18T07:36:10.964Z,100.00
2022-11-18T07:38:39.333Z,100.00
2022-11-18T07:41:12.353Z,100.00
2022-11-18T07:43:39.581Z,100.00
2022-11-18T07:46:10.579Z,100.00
2022-11-18T07:48:37.933Z,100.00
2022-11-18T07:51:04.559Z,100.00
2022-11-18T07:53:32.161Z,100.00
2022-11-18T07:55:58.551Z,100.00
2022-11-18T07:58:25.163Z,100.00
2022-11-18T08:00:51.699Z,100.00
2022-11-18T08:03:18.422Z,100.00
2022-11-18T08:05:45.084Z,100.00
2022-11-18T08:08:11.646Z,100.00
2022-11-18T08:10:38.171Z,100.00
2022-11-18T08:13:04.689Z,100.00
2022-11-18T08:15:33.226Z,100.00
2022-11-18T08:18:10.968Z,100.00
2022-11-18T08:20:47.863Z,100.00
2022-11-18T08:23:15.445Z,100.00
2022-11-18T08:25:43.883Z,100.00
2022-11-18T08:28:11.484Z,100.00
2022-11-18T08:30:51.430Z,100.00
2022-11-18T08:33:17.950Z,100.00
2022-11-18T08:35:45.141Z,100.00
2022-11-18T08:38:11.994Z,100.00
2022-11-18T08:40:44.905Z,100.00
2022-11-18T08:43:11.682Z,100.00
2022-11-18T08:45:39.998Z,100.00
2022-11-18T08:48:12.020Z,100.00
2022-11-18T08:50:38.563Z,100.00
2022-11-18T08:53:05.189Z,100.00
2022-11-18T08:55:32.372Z,100.00
2022-11-18T08:58:00.361Z,100.00
2022-11-18T09:00:26.943Z,100.00
2022-11-18T09:02:54.301Z,100.00
2022-11-18T09:05:20.803Z,100.00
2022-11-18T09:07:47.397Z,100.00
2022-11-18T09:10:13.947Z,100.00
2022-11-18T09:12:40.373Z,100.00
2022-11-18T09:15:15.371Z,100.00
2022-11-18T09:17:48.284Z,100.00
2022-11-18T09:20:14.852Z,100.00
2022-11-18T09:22:41.321Z,100.00
2022-11-18T09:25:08.564Z,100.00
2022-11-18T09:27:35.106Z,100.00
2022-11-18T09:30:01.583Z,100.00
2022-11-18T09:32:28.190Z,100.00
2022-11-18T09:34:54.614Z,100.00
2022-11-18T09:37:21.053Z,100.00
2022-11-18T09:39:47.557Z,100.00
2022-11-18T09:42:39.920Z,100.00
2022-11-18T09:45:25.985Z,100.00
2022-11-18T09:47:59.685Z,100.00
2022-11-18T09:50:48.572Z,100.00
2022-11-18T09:53:25.946Z,100.00
2022-11-18T09:55:55.006Z,100.00
2022-11-18T09:58:29.140Z,100.00
2022-11-18T10:00:55.567Z,100.00
2022-11-18T10:03:33.621Z,100.00
2022-11-18T10:06:09.285Z,100.00
2022-11-18T10:09:13.645Z,100.00
2022-11-18T10:11:57.968Z,100.00
2022-11-18T10:14:55.344Z,100.00
2022-11-18T10:17:30.939Z,100.00
2022-11-18T10:20:12.251Z,100.00
2022-11-18T10:22:44.594Z,100.00
2022-11-18T10:25:17.475Z,100.00
2022-11-18T10:27:47.213Z,100.00
2022-11-18T10:30:25.632Z,100.00
2022-11-18T10:33:16.911Z,100.00
2022-11-18T10:35:43.711Z,100.00
2022-11-18T10:38:13.501Z,100.00
2022-11-18T10:40:45.766Z,100.00
2022-11-18T10:43:13.704Z,100.00
2022-11-18T10:45:40.186Z,100.00
2022-11-18T10:48:17.670Z,100.00
2022-11-18T10:50:55.496Z,100.00
2022-11-18T10:53:34.229Z,100.00
2022-11-18T10:56:13.512Z,100.00
2022-11-18T10:58:51.495Z,100.00
2022-11-18T11:01:27.439Z,100.00
2022-11-18T11:04:02.098Z,100.00
2022-11-18T11:06:34.076Z,100.00
2022-11-18T11:09:02.537Z,100.00
2022-11-18T11:11:34.127Z,100.00
2022-11-18T11:14:27.404Z,100.00
2022-11-18T11:17:06.722Z,100.00
2022-11-18T11:19:41.105Z,99.35
2022-11-18T11:22:10.942Z,99.09
2022-11-18T11:24:37.866Z,99.79
2022-11-18T11:30:14.824Z,98.24
2022-11-18T11:33:05.763Z,98.97
2022-11-18T11:35:50.366Z,98.71
2022-11-18T11:38:19.858Z,97.98
2022-11-18T11:40:59.167Z,98.74
2022-11-18T11:43:57.621Z,98.23
2022-11-18T11:46:38.736Z,96.87
2022-11-18T11:49:22.233Z,96.56
2022-11-18T11:52:03.182Z,96.66
2022-11-18T11:54:48.350Z,96.77
2022-11-18T11:58:00.433Z,95.99
2022-11-18T12:00:28.821Z,96.45
2022-11-18T12:03:27.717Z,96.52
2022-11-18T12:05:54.137Z,96.35
2022-11-18T12:08:24.610Z,97.41
2022-11-18T12:11:07.363Z,97.34
2022-11-18T12:13:45.536Z,96.76
2022-11-18T12:16:21.058Z,95.86
2022-11-18T12:19:01.794Z,96.66
2022-11-18T12:21:50.375Z,96.04
2022-11-18T12:24:20.599Z,95.90
2022-11-18T12:26:48.833Z,95.69
2022-11-18T12:29:18.752Z,95.56
2022-11-18T12:31:51.613Z,95.80
2022-11-18T12:34:19.541Z,95.14
2022-11-18T12:36:47.553Z,95.52
2022-11-18T12:39:26.397Z,94.88
2022-11-18T12:42:19.292Z,94.45
2022-11-18T12:44:49.665Z,94.50
2022-11-18T12:47:37.378Z,94.22
2022-11-18T12:50:07.981Z,94.06
2022-11-18T12:52:34.627Z,93.19
2022-11-18T12:55:04.549Z,92.59
2022-11-18T12:57:33.862Z,92.81
2022-11-18T13:00:23.462Z,93.46
2022-11-18T13:03:01.739Z,92.77
2022-11-18T13:05:34.567Z,92.70
2022-11-18T13:08:14.005Z,92.75
2022-11-18T13:11:15.173Z,93.50
2022-11-18T13:13:43.066Z,92.19
2022-11-18T13:16:40.771Z,92.87
2022-11-18T13:19:07.772Z,92.75
2022-11-18T13:21:54.095Z,92.59
2022-11-18T13:24:22.750Z,92.37
2022-11-18T13:26:56.526Z,93.08
2022-11-18T13:29:53.905Z,93.14
2022-11-18T13:32:27.306Z,93.13
2022-11-18T13:35:13.658Z,93.34
2022-11-18T13:37:54.428Z,93.32
2022-11-18T13:40:29.039Z,93.30
2022-11-18T13:42:56.080Z,93.91
2022-11-18T13:45:28.577Z,94.06
2022-11-18T13:47:55.085Z,93.39
2022-11-18T13:50:37.296Z,93.66
2022-11-18T13:53:13.895Z,94.28
2022-11-18T13:55:48.623Z,94.47
2022-11-18T13:58:18.531Z,94.74
2022-11-18T14:00:56.791Z,94.57
2022-11-18T14:03:39.782Z,95.03
2022-11-18T14:06:06.571Z,95.23
2022-11-18T14:08:36.487Z,95.03
2022-11-18T14:11:05.585Z,95.87
2022-11-18T14:14:14.844Z,96.69
2022-11-18T14:16:42.909Z,96.84
2022-11-18T14:19:30.725Z,96.88
2022-11-18T14:22:11.691Z,97.85
2022-11-18T14:24:42.013Z,97.53
2022-11-18T14:27:33.471Z,98.40
2022-11-18T14:30:00.016Z,99.00
2022-11-18T14:32:27.432Z,99.04
2022-11-18T14:34:59.290Z,98.90
2022-11-18T14:37:26.807Z,99.91
2022-11-18T14:39:58.056Z,99.13
2022-11-18T14:42:24.920Z,99.35
2022-11-18T14:44:51.597Z,100.00
2022-11-18T14:47:27.225Z,99.88
2022-11-18T14:49:54.392Z,99.95
2022-11-18T14:52:23.989Z,100.00
2022-11-18T14:54:52.125Z,100.00
2022-11-18T14:57:19.668Z,100.00
2022-11-18T14:59:46.439Z,100.00
2022-11-18T15:02:15.462Z,100.00
2022-11-18T15:04:43.033Z,100.00
2022-11-18T15:07:18.573Z,100.00
2022-11-18T15:09:50.420Z,100.00
2022-11-18T15:12:16.952Z,100.00
2022-11-18T15:14:43.496Z,100.00
2022-11-18T15:17:12.453Z,100.00
2022-11-18T15:19:42.390Z,100.00
2022-11-18T15:22:12.423Z,100.00
2022-11-18T15:24:42.047Z,100.00
2022-11-18T15:27:12.691Z,100.00
2022-11-18T15:29:40.432Z,100.00
2022-11-18T15:32:08.063Z,100.00
2022-11-18T15:34:34.577Z,100.00
2022-11-18T15:37:01.270Z,100.00
2022-11-18T15:39:28.093Z,100.00
2022-11-18T15:41:56.003Z,100.00
2022-11-18T15:44:22.438Z,100.00
2022-11-18T15:46:49.434Z,100.00
2022-11-18T15:49:17.878Z,100.00
2022-11-18T15:51:44.476Z,100.00
2022-11-18T15:54:11.414Z,100.00
2022-11-18T15:56:39.721Z,100.00
2022-11-18T15:59:11.718Z,100.00
2022-11-18T16:01:41.197Z,100.00
2022-11-18T16:04:14.392Z,100.00
2022-11-18T16:06:51.571Z,100.00
2022-11-18T16:09:18.776Z,100.00
2022-11-18T16:12:05.883Z,100.00
2022-11-18T16:14:33.156Z,100.00
2022-11-18T16:16:59.628Z,100.00
2022-11-18T16:19:27.009Z,100.00
2022-11-18T16:21:56.680Z,100.00
2022-11-18T16:24:27.116Z,100.00
2022-11-18T16:26:54.284Z,100.00
2022-11-18T16:29:21.318Z,100.00
2022-11-18T16:31:53.119Z,100.00
2022-11-18T16:34:25.119Z,100.00
2022-11-18T16:36:54.609Z,100.00
2022-11-18T16:39:27.163Z,100.00
2022-11-18T16:42:06.782Z,100.00
2022-11-18T16:44:34.804Z,100.00
2022-11-18T16:47:01.205Z,100.00
2022-11-18T16:49:31.859Z,100.00
2022-11-18T16:52:22.635Z,100.00
2022-11-18T16:54:49.332Z,100.00
2022-11-18T16:57:15.743Z,100.00
2022-11-18T16:59:42.148Z,100.00
2022-11-18T17:02:12.376Z,100.00
2022-11-18T17:04:39.393Z,100.00
2022-11-18T17:07:06.193Z,100.00
2022-11-18T17:09:33.091Z,100.00
2022-11-18T17:12:03.884Z,100.00
2022-11-18T17:14:30.629Z,100.00
2022-11-18T17:16:57.849Z,100.00
2022-11-18T17:19:24.963Z,100.00
2022-11-18T17:21:51.833Z,100.00
2022-11-18T17:24:22.113Z,100.00
2022-11-18T17:26:49.550Z,100.00
2022-11-18T17:29:16.587Z,100.00
2022-11-18T17:31:43.194Z,100.00
2022-11-18T17:34:11.740Z,100.00
2022-11-18T17:36:38.235Z,100.00
2022-11-18T17:39:04.698Z,100.00
2022-11-18T17:41:50.628Z,100.00
2022-11-18T17:44:18.485Z,100.00
2022-11-18T17:46:47.164Z,100.00
2022-11-18T17:49:18.985Z,100.00
2022-11-18T17:51:54.015Z,100.00
2022-11-18T17:54:24.295Z,100.00
2022-11-18T17:56:54.395Z,100.00
2022-11-18T17:59:21.521Z,100.00
2022-11-18T18:01:52.857Z,100.00
2022-11-18T18:04:22.370Z,100.00
2022-11-18T18:06:51.201Z,100.00
2022-11-18T18:09:21.799Z,100.00
2022-11-18T18:11:53.134Z,100.00
2022-11-18T18:14:19.790Z,100.00
2022-11-18T18:16:50.592Z,100.00
2022-11-18T18:19:20.568Z,100.00
2022-11-18T18:21:47.975Z,100.00
2022-11-18T18:24:17.398Z,100.00
2022-11-18T18:26:44.146Z,100.00
2022-11-18T18:29:11.811Z,100.00
2022-11-18T18:31:38.650Z,100.00
2022-11-18T18:34:05.747Z,100.00
2022-11-18T18:36:32.686Z,100.00
2022-11-18T18:39:02.895Z,100.00
2022-11-18T18:41:30.007Z,100.00
2022-11-18T18:43:57.746Z,100.00
2022-11-18T18:46:28.907Z,100.00
2022-11-18T18:48:57.102Z,100.00
2022-11-18T18:51:24.530Z,100.00
2022-11-18T18:53:54.262Z,100.00
2022-11-18T18:56:22.189Z,100.00
2022-11-18T18:58:52.237Z,100.00
2022-11-18T19:01:19.651Z,100.00
2022-11-18T19:03:46.448Z,100.00
2022-11-18T19:06:51.595Z,100.00
2022-11-18T19:09:09.228Z,100.00
2022-11-18T19:12:00.458Z,100.00
2022-11-18T19:14:28.504Z,100.00
2022-11-18T19:16:56.732Z,100.00
2022-11-18T19:19:45.044Z,100.00
2022-11-18T19:22:14.694Z,100.00
2022-11-18T19:24:49.740Z,100.00
2022-11-18T19:27:18.250Z,100.00
2022-11-18T19:29:45.835Z,100.00
2022-11-18T19:32:12.730Z,100.00
2022-11-18T19:34:40.125Z,100.00
2022-11-18T19:37:07.042Z,100.00
2022-11-18T19:39:34.812Z,100.00
2022-11-18T19:42:02.092Z,100.00
2022-11-18T19:44:28.746Z,100.00
2022-11-18T19:46:55.187Z,100.00
2022-11-18T19:49:22.140Z,100.00
2022-11-18T19:51:49.085Z,100.00
2022-11-18T19:54:15.567Z,100.00
2022-11-18T19:56:42.214Z,100.00
2022-11-18T19:59:08.663Z,100.00
2022-11-18T20:01:35.221Z,100.00
2022-11-18T20:04:03.070Z,100.00
2022-11-18T20:06:29.970Z,100.00
2022-11-18T20:08:57.135Z,100.00
2022-11-18T20:11:23.938Z,100.00
2022-11-18T20:13:51.189Z,100.00
2022-11-18T20:16:20.733Z,100.00
2022-11-18T20:18:56.710Z,100.00
2022-11-18T20:21:24.485Z,100.00
2022-11-18T20:23:54.961Z,100.00
2022-11-18T20:26:24.165Z,100.00
2022-11-18T20:28:57.024Z,100.00
2022-11-18T20:31:24.508Z,100.00
2022-11-18T20:33:54.116Z,100.00
2022-11-18T20:36:27.347Z,100.00
2022-11-18T20:38:58.232Z,100.00
2022-11-18T20:41:28.363Z,100.00
2022-11-18T20:43:55.079Z,100.00
2022-11-18T20:46:22.220Z,100.00
2022-11-18T20:48:49.624Z,100.00
2022-11-18T20:51:25.022Z,100.00
2022-11-18T20:53:54.285Z,100.00
2022-11-18T20:56:23.386Z,100.00
2022-11-18T20:58:50.390Z,100.00
2022-11-18T21:01:22.034Z,100.00
2022-11-18T21:03:58.501Z,100.00
2022-11-18T21:06:28.337Z,100.00
2022-11-18T21:08:57.842Z,100.00
2022-11-18T21:11:24.983Z,100.00
2022-11-18T21:14:10.221Z,100.00
2022-11-18T21:16:36.862Z,100.00
2022-11-18T21:19:04.748Z,100.00
2022-11-18T21:21:48.572Z,99.56
2022-11-18T21:24:17.794Z,99.87
2022-11-18T21:26:51.433Z,99.08
2022-11-18T21:29:18.553Z,99.14
2022-11-18T21:31:47.148Z,99.49
2022-11-18T21:34:15.350Z,99.50
2022-11-18T21:36:45.862Z,99.20
2022-11-18T21:39:17.946Z,99.15
2022-11-18T21:41:44.913Z,99.03
2022-11-18T21:44:13.786Z,98.87
2022-11-18T21:46:42.151Z,98.69
2022-11-18T21:49:09.409Z,98.69
2022-11-18T21:51:36.886Z,97.86
2022-11-18T21:54:04.097Z,97.59
2022-11-18T21:56:31.860Z,98.04
2022-11-18T21:59:01.116Z,96.92
2022-11-18T22:01:33.204Z,98.28
2022-11-18T22:04:02.681Z,97.43
2022-11-18T22:06:32.475Z,96.95
2022-11-18T22:09:06.253Z,97.01
2022-11-18T22:11:39.158Z,97.02
2022-11-18T22:14:07.908Z,96.40
2022-11-18T22:16:34.834Z,97.22
2022-11-18T22:19:08.191Z,96.55
2022-11-18T22:21:35.045Z,97.23
2022-11-18T22:24:02.000Z,96.97
2022-11-18T22:26:31.312Z,96.51
2022-11-18T22:28:58.733Z,96.47
2022-11-18T22:31:30.381Z,96.56
2022-11-18T22:33:57.018Z,96.26
2022-11-18T22:36:25.730Z,96.64
2022-11-18T22:38:53.411Z,96.62
2022-11-18T22:41:41.230Z,96.16
2022-11-18T22:44:09.647Z,96.40
2022-11-18T22:46:37.324Z,96.62
2022-11-18T22:49:04.752Z,96.30
2022-11-18T22:51:31.463Z,96.88
2022-11-18T22:54:22.732Z,96.36
2022-11-18T22:56:44.457Z,96.59
2022-11-18T22:59:11.940Z,96.79
2022-11-18T23:01:39.056Z,97.21
2022-11-18T23:04:05.904Z,96.63
2022-11-18T23:06:32.458Z,96.90
2022-11-18T23:08:59.007Z,96.77
2022-11-18T23:11:44.354Z,96.32
2022-11-18T23:14:11.133Z,96.74
2022-11-18T23:16:40.659Z,96.33
2022-11-18T23:19:10.936Z,96.62
2022-11-18T23:21:37.601Z,96.92
2022-11-18T23:24:04.787Z,97.22
2022-11-18T23:26:32.003Z,96.30
2022-11-18T23:28:58.719Z,97.17
2022-11-18T23:31:26.773Z,96.82
2022-11-18T23:33:55.634Z,96.74
2022-11-18T23:36:22.541Z,96.30
2022-11-18T23:38:49.238Z,96.61
2022-11-18T23:41:17.928Z,96.44
2022-11-18T23:43:46.868Z,96.85
2022-11-18T23:46:14.793Z,96.43
2022-11-18T23:48:42.778Z,96.81
2022-11-18T23:51:23.257Z,96.25
2022-11-18T23:53:57.147Z,96.29
2022-11-18T23:56:26.126Z,96.14
2022-11-18T23:58:54.112Z,96.37
